sensor_id;sensor_type;location;lat;lon;timestamp;P1;durP1;ratioP1;P2;durP2;ratioP2
39016;SDS011;24784;45.582;5.276;2024-01-07T00:02:18;3.75;;;3.10;;
39016;SDS011;24784;45.582;5.276;2024-01-07T00:04:44;3.65;;;2.85;;
39016;SDS011;24784;45.582;5.276;2024-01-07T00:07:10;4.82;;;3.60;;
39016;SDS011;24784;45.582;5.276;2024-01-07T00:09:35;4.65;;;3.85;;
39016;SDS011;24784;45.582;5.276;2024-01-07T00:12:01;4.82;;;4.30;;
39016;SDS011;24784;45.582;5.276;2024-01-07T00:14:27;5.53;;;4.60;;
39016;SDS011;24784;45.582;5.276;2024-01-07T00:16:52;5.20;;;4.35;;
39016;SDS011;24784;45.582;5.276;2024-01-07T00:19:18;5.78;;;4.90;;
39016;SDS011;24784;45.582;5.276;2024-01-07T00:21:43;4.93;;;4.35;;
39016;SDS011;24784;45.582;5.276;2024-01-07T00:24:09;5.32;;;4.60;;
39016;SDS011;24784;45.582;5.276;2024-01-07T00:26:35;5.82;;;4.78;;
39016;SDS011;24784;45.582;5.276;2024-01-07T00:29:00;6.13;;;4.82;;
39016;SDS011;24784;45.582;5.276;2024-01-07T00:31:26;5.78;;;4.78;;
39016;SDS011;24784;45.582;5.276;2024-01-07T00:33:51;7.93;;;5.18;;
39016;SDS011;24784;45.582;5.276;2024-01-07T00:36:17;6.30;;;4.70;;
39016;SDS011;24784;45.582;5.276;2024-01-07T00:38:43;6.15;;;5.28;;
39016;SDS011;24784;45.582;5.276;2024-01-07T00:41:08;10.20;;;5.97;;
39016;SDS011;24784;45.582;5.276;2024-01-07T00:43:34;7.78;;;6.45;;
39016;SDS011;24784;45.582;5.276;2024-01-07T00:46:00;9.90;;;5.28;;
39016;SDS011;24784;45.582;5.276;2024-01-07T00:48:25;8.88;;;5.22;;
39016;SDS011;24784;45.582;5.276;2024-01-07T00:50:51;9.60;;;6.43;;
39016;SDS011;24784;45.582;5.276;2024-01-07T00:53:16;5.38;;;4.80;;
39016;SDS011;24784;45.582;5.276;2024-01-07T00:55:42;7.78;;;5.20;;
39016;SDS011;24784;45.582;5.276;2024-01-07T00:58:08;6.22;;;4.97;;
39016;SDS011;24784;45.582;5.276;2024-01-07T01:00:33;6.75;;;4.93;;
39016;SDS011;24784;45.582;5.276;2024-01-07T01:02:59;6.03;;;4.90;;
39016;SDS011;24784;45.582;5.276;2024-01-07T01:05:24;5.85;;;4.60;;
39016;SDS011;24784;45.582;5.276;2024-01-07T01:07:50;7.95;;;4.65;;
39016;SDS011;24784;45.582;5.276;2024-01-07T01:10:17;6.25;;;5.25;;
39016;SDS011;24784;45.582;5.276;2024-01-07T01:12:43;7.00;;;5.40;;
39016;SDS011;24784;45.582;5.276;2024-01-07T01:15:09;6.72;;;4.22;;
39016;SDS011;24784;45.582;5.276;2024-01-07T01:17:35;5.28;;;4.45;;
39016;SDS011;24784;45.582;5.276;2024-01-07T01:20:01;7.30;;;4.32;;
39016;SDS011;24784;45.582;5.276;2024-01-07T01:22:26;4.50;;;3.85;;
39016;SDS011;24784;45.582;5.276;2024-01-07T01:24:52;5.82;;;4.00;;
39016;SDS011;24784;45.582;5.276;2024-01-07T01:27:18;4.70;;;4.20;;
39016;SDS011;24784;45.582;5.276;2024-01-07T01:29:44;4.07;;;3.67;;
39016;SDS011;24784;45.582;5.276;2024-01-07T01:32:10;4.28;;;3.80;;
39016;SDS011;24784;45.582;5.276;2024-01-07T01:34:36;4.13;;;3.70;;
39016;SDS011;24784;45.582;5.276;2024-01-07T01:37:01;4.57;;;3.63;;
39016;SDS011;24784;45.582;5.276;2024-01-07T01:39:28;5.80;;;3.80;;
39016;SDS011;24784;45.582;5.276;2024-01-07T01:41:54;4.22;;;3.55;;
39016;SDS011;24784;45.582;5.276;2024-01-07T01:44:20;3.63;;;3.33;;
39016;SDS011;24784;45.582;5.276;2024-01-07T01:46:46;3.88;;;3.17;;
39016;SDS011;24784;45.582;5.276;2024-01-07T01:49:12;4.65;;;3.47;;
39016;SDS011;24784;45.582;5.276;2024-01-07T01:51:38;4.03;;;3.58;;
39016;SDS011;24784;45.582;5.276;2024-01-07T01:54:04;4.18;;;3.30;;
39016;SDS011;24784;45.582;5.276;2024-01-07T01:56:29;6.22;;;3.92;;
39016;SDS011;24784;45.582;5.276;2024-01-07T01:58:56;4.45;;;3.47;;
39016;SDS011;24784;45.582;5.276;2024-01-07T02:01:22;4.07;;;3.40;;
39016;SDS011;24784;45.582;5.276;2024-01-07T02:03:48;3.75;;;3.35;;
39016;SDS011;24784;45.582;5.276;2024-01-07T02:06:14;4.63;;;3.60;;
39016;SDS011;24784;45.582;5.276;2024-01-07T02:08:41;4.10;;;3.45;;
39016;SDS011;24784;45.582;5.276;2024-01-07T02:11:16;5.15;;;3.88;;
39016;SDS011;24784;45.582;5.276;2024-01-07T02:13:43;4.60;;;4.07;;
39016;SDS011;24784;45.582;5.276;2024-01-07T02:16:09;5.13;;;3.97;;
39016;SDS011;24784;45.582;5.276;2024-01-07T02:18:35;4.30;;;3.80;;
39016;SDS011;24784;45.582;5.276;2024-01-07T02:21:00;5.05;;;3.90;;
39016;SDS011;24784;45.582;5.276;2024-01-07T02:23:26;5.57;;;4.15;;
39016;SDS011;24784;45.582;5.276;2024-01-07T02:25:51;5.97;;;4.07;;
39016;SDS011;24784;45.582;5.276;2024-01-07T02:28:17;5.65;;;4.43;;
39016;SDS011;24784;45.582;5.276;2024-01-07T02:30:43;6.75;;;5.13;;
39016;SDS011;24784;45.582;5.276;2024-01-07T02:33:08;8.52;;;5.43;;
39016;SDS011;24784;45.582;5.276;2024-01-07T02:35:34;9.23;;;6.20;;
39016;SDS011;24784;45.582;5.276;2024-01-07T02:37:59;10.32;;;6.93;;
39016;SDS011;24784;45.582;5.276;2024-01-07T02:40:25;9.38;;;7.15;;
39016;SDS011;24784;45.582;5.276;2024-01-07T02:42:51;13.75;;;7.57;;
39016;SDS011;24784;45.582;5.276;2024-01-07T02:45:16;9.38;;;7.05;;
39016;SDS011;24784;45.582;5.276;2024-01-07T02:47:42;9.70;;;6.82;;
39016;SDS011;24784;45.582;5.276;2024-01-07T02:50:08;10.02;;;6.80;;
39016;SDS011;24784;45.582;5.276;2024-01-07T02:52:33;7.22;;;5.60;;
39016;SDS011;24784;45.582;5.276;2024-01-07T02:54:59;7.93;;;6.28;;
39016;SDS011;24784;45.582;5.276;2024-01-07T02:57:26;8.40;;;5.97;;
39016;SDS011;24784;45.582;5.276;2024-01-07T02:59:52;7.60;;;5.20;;
39016;SDS011;24784;45.582;5.276;2024-01-07T03:02:18;7.18;;;5.32;;
39016;SDS011;24784;45.582;5.276;2024-01-07T03:04:43;8.30;;;5.88;;
39016;SDS011;24784;45.582;5.276;2024-01-07T03:07:09;7.18;;;5.35;;
39016;SDS011;24784;45.582;5.276;2024-01-07T03:09:35;6.20;;;5.28;;
39016;SDS011;24784;45.582;5.276;2024-01-07T03:12:00;7.15;;;5.20;;
39016;SDS011;24784;45.582;5.276;2024-01-07T03:14:26;8.05;;;5.20;;
39016;SDS011;24784;45.582;5.276;2024-01-07T03:16:52;6.28;;;4.90;;
39016;SDS011;24784;45.582;5.276;2024-01-07T03:19:17;6.25;;;5.00;;
39016;SDS011;24784;45.582;5.276;2024-01-07T03:21:43;6.53;;;5.22;;
39016;SDS011;24784;45.582;5.276;2024-01-07T03:24:09;6.35;;;4.80;;
39016;SDS011;24784;45.582;5.276;2024-01-07T03:26:35;7.70;;;5.75;;
39016;SDS011;24784;45.582;5.276;2024-01-07T03:29:01;7.10;;;5.38;;
39016;SDS011;24784;45.582;5.276;2024-01-07T03:31:27;6.45;;;4.95;;
39016;SDS011;24784;45.582;5.276;2024-01-07T03:33:53;6.25;;;5.07;;
39016;SDS011;24784;45.582;5.276;2024-01-07T03:36:19;7.57;;;5.47;;
39016;SDS011;24784;45.582;5.276;2024-01-07T03:38:45;7.63;;;5.50;;
39016;SDS011;24784;45.582;5.276;2024-01-07T03:41:15;9.85;;;5.35;;
39016;SDS011;24784;45.582;5.276;2024-01-07T03:46:14;9.50;;;6.35;;
39016;SDS011;24784;45.582;5.276;2024-01-07T03:48:43;7.65;;;5.72;;
39016;SDS011;24784;45.582;5.276;2024-01-07T03:51:09;9.95;;;6.20;;
39016;SDS011;24784;45.582;5.276;2024-01-07T03:53:34;9.65;;;6.30;;
39016;SDS011;24784;45.582;5.276;2024-01-07T03:56:00;9.57;;;7.07;;
39016;SDS011;24784;45.582;5.276;2024-01-07T03:58:26;10.45;;;7.00;;
39016;SDS011;24784;45.582;5.276;2024-01-07T04:00:51;10.50;;;7.28;;
39016;SDS011;24784;45.582;5.276;2024-01-07T04:03:17;9.93;;;6.95;;
39016;SDS011;24784;45.582;5.276;2024-01-07T04:05:42;9.80;;;6.88;;
39016;SDS011;24784;45.582;5.276;2024-01-07T04:08:10;10.52;;;7.43;;
39016;SDS011;24784;45.582;5.276;2024-01-07T04:10:36;9.48;;;6.57;;
39016;SDS011;24784;45.582;5.276;2024-01-07T04:13:03;10.27;;;6.78;;
39016;SDS011;24784;45.582;5.276;2024-01-07T04:15:29;9.52;;;7.13;;
39016;SDS011;24784;45.582;5.276;2024-01-07T04:17:55;11.65;;;7.47;;
39016;SDS011;24784;45.582;5.276;2024-01-07T04:20:20;10.75;;;7.30;;
39016;SDS011;24784;45.582;5.276;2024-01-07T04:22:46;9.60;;;6.85;;
39016;SDS011;24784;45.582;5.276;2024-01-07T04:25:12;10.73;;;7.82;;
39016;SDS011;24784;45.582;5.276;2024-01-07T04:27:38;10.30;;;6.70;;
39016;SDS011;24784;45.582;5.276;2024-01-07T04:30:04;11.65;;;7.03;;
39016;SDS011;24784;45.582;5.276;2024-01-07T04:32:30;10.93;;;7.03;;
39016;SDS011;24784;45.582;5.276;2024-01-07T04:34:56;11.27;;;6.95;;
39016;SDS011;24784;45.582;5.276;2024-01-07T04:37:23;10.82;;;6.40;;
39016;SDS011;24784;45.582;5.276;2024-01-07T04:39:49;9.63;;;6.80;;
39016;SDS011;24784;45.582;5.276;2024-01-07T04:42:15;10.07;;;6.63;;
39016;SDS011;24784;45.582;5.276;2024-01-07T04:44:43;10.38;;;6.75;;
39016;SDS011;24784;45.582;5.276;2024-01-07T04:49:54;10.57;;;6.55;;
39016;SDS011;24784;45.582;5.276;2024-01-07T04:52:23;9.65;;;6.80;;
39016;SDS011;24784;45.582;5.276;2024-01-07T04:54:50;13.05;;;6.93;;
39016;SDS011;24784;45.582;5.276;2024-01-07T04:57:17;9.38;;;6.40;;
39016;SDS011;24784;45.582;5.276;2024-01-07T04:59:42;9.63;;;5.90;;
39016;SDS011;24784;45.582;5.276;2024-01-07T05:02:08;10.00;;;5.68;;
39016;SDS011;24784;45.582;5.276;2024-01-07T05:04:35;8.65;;;6.18;;
39016;SDS011;24784;45.582;5.276;2024-01-07T05:07:01;9.07;;;6.22;;
39016;SDS011;24784;45.582;5.276;2024-01-07T05:09:26;11.00;;;6.68;;
39016;SDS011;24784;45.582;5.276;2024-01-07T05:11:52;7.82;;;5.82;;
39016;SDS011;24784;45.582;5.276;2024-01-07T05:14:17;7.88;;;5.50;;
39016;SDS011;24784;45.582;5.276;2024-01-07T05:16:43;7.88;;;5.05;;
39016;SDS011;24784;45.582;5.276;2024-01-07T05:19:09;7.47;;;5.22;;
39016;SDS011;24784;45.582;5.276;2024-01-07T05:21:34;12.75;;;6.78;;
39016;SDS011;24784;45.582;5.276;2024-01-07T05:24:00;7.07;;;5.10;;
39016;SDS011;24784;45.582;5.276;2024-01-07T05:26:25;8.15;;;5.20;;
39016;SDS011;24784;45.582;5.276;2024-01-07T05:28:51;8.20;;;5.63;;
39016;SDS011;24784;45.582;5.276;2024-01-07T05:31:17;7.30;;;5.15;;
39016;SDS011;24784;45.582;5.276;2024-01-07T05:33:43;7.18;;;5.25;;
39016;SDS011;24784;45.582;5.276;2024-01-07T05:36:12;8.35;;;5.63;;
39016;SDS011;24784;45.582;5.276;2024-01-07T05:38:38;8.20;;;5.18;;
39016;SDS011;24784;45.582;5.276;2024-01-07T05:41:04;7.10;;;5.30;;
39016;SDS011;24784;45.582;5.276;2024-01-07T05:43:30;6.32;;;4.65;;
39016;SDS011;24784;45.582;5.276;2024-01-07T05:45:55;6.95;;;4.80;;
39016;SDS011;24784;45.582;5.276;2024-01-07T05:48:21;6.13;;;4.60;;
39016;SDS011;24784;45.582;5.276;2024-01-07T05:50:47;7.28;;;5.35;;
39016;SDS011;24784;45.582;5.276;2024-01-07T05:53:13;6.75;;;4.90;;
39016;SDS011;24784;45.582;5.276;2024-01-07T05:55:39;6.90;;;5.22;;
39016;SDS011;24784;45.582;5.276;2024-01-07T05:58:05;8.35;;;5.70;;
39016;SDS011;24784;45.582;5.276;2024-01-07T06:00:30;7.25;;;5.40;;
39016;SDS011;24784;45.582;5.276;2024-01-07T06:02:56;10.10;;;6.28;;
39016;SDS011;24784;45.582;5.276;2024-01-07T06:05:22;7.03;;;5.35;;
39016;SDS011;24784;45.582;5.276;2024-01-07T06:07:48;7.82;;;5.38;;
39016;SDS011;24784;45.582;5.276;2024-01-07T06:10:14;6.05;;;4.80;;
39016;SDS011;24784;45.582;5.276;2024-01-07T06:12:40;5.63;;;4.68;;
39016;SDS011;24784;45.582;5.276;2024-01-07T06:15:05;5.18;;;4.47;;
39016;SDS011;24784;45.582;5.276;2024-01-07T06:17:31;6.70;;;4.43;;
39016;SDS011;24784;45.582;5.276;2024-01-07T06:19:57;6.22;;;4.53;;
39016;SDS011;24784;45.582;5.276;2024-01-07T06:22:23;8.05;;;5.75;;
39016;SDS011;24784;45.582;5.276;2024-01-07T06:24:48;7.03;;;5.10;;
39016;SDS011;24784;45.582;5.276;2024-01-07T06:27:14;6.85;;;5.32;;
39016;SDS011;24784;45.582;5.276;2024-01-07T06:29:40;7.20;;;5.32;;
39016;SDS011;24784;45.582;5.276;2024-01-07T06:32:05;9.90;;;5.13;;
39016;SDS011;24784;45.582;5.276;2024-01-07T06:34:31;7.00;;;5.00;;
39016;SDS011;24784;45.582;5.276;2024-01-07T06:36:58;6.63;;;4.90;;
39016;SDS011;24784;45.582;5.276;2024-01-07T06:39:24;6.85;;;4.72;;
39016;SDS011;24784;45.582;5.276;2024-01-07T06:41:52;5.47;;;4.20;;
39016;SDS011;24784;45.582;5.276;2024-01-07T06:44:17;5.90;;;4.18;;
39016;SDS011;24784;45.582;5.276;2024-01-07T06:46:43;6.10;;;4.60;;
39016;SDS011;24784;45.582;5.276;2024-01-07T06:49:09;6.20;;;4.75;;
39016;SDS011;24784;45.582;5.276;2024-01-07T06:51:34;6.60;;;4.93;;
39016;SDS011;24784;45.582;5.276;2024-01-07T06:54:00;5.85;;;4.85;;
39016;SDS011;24784;45.582;5.276;2024-01-07T06:56:26;5.32;;;4.20;;
39016;SDS011;24784;45.582;5.276;2024-01-07T06:58:52;6.50;;;4.70;;
39016;SDS011;24784;45.582;5.276;2024-01-07T07:01:19;7.97;;;5.07;;
39016;SDS011;24784;45.582;5.276;2024-01-07T07:03:46;6.57;;;5.03;;
39016;SDS011;24784;45.582;5.276;2024-01-07T07:06:12;6.90;;;4.70;;
39016;SDS011;24784;45.582;5.276;2024-01-07T07:08:38;7.07;;;5.13;;
39016;SDS011;24784;45.582;5.276;2024-01-07T07:11:04;13.00;;;5.68;;
39016;SDS011;24784;45.582;5.276;2024-01-07T07:13:29;8.80;;;5.50;;
39016;SDS011;24784;45.582;5.276;2024-01-07T07:15:55;6.85;;;5.10;;
39016;SDS011;24784;45.582;5.276;2024-01-07T07:18:20;8.25;;;5.90;;
39016;SDS011;24784;45.582;5.276;2024-01-07T07:20:46;8.38;;;5.78;;
39016;SDS011;24784;45.582;5.276;2024-01-07T07:23:12;7.50;;;5.78;;
39016;SDS011;24784;45.582;5.276;2024-01-07T07:25:38;8.05;;;5.65;;
39016;SDS011;24784;45.582;5.276;2024-01-07T07:28:05;8.73;;;5.70;;
39016;SDS011;24784;45.582;5.276;2024-01-07T07:30:31;9.55;;;5.70;;
39016;SDS011;24784;45.582;5.276;2024-01-07T07:32:56;8.40;;;5.72;;
39016;SDS011;24784;45.582;5.276;2024-01-07T07:35:22;9.18;;;5.38;;
39016;SDS011;24784;45.582;5.276;2024-01-07T07:37:47;8.50;;;6.38;;
39016;SDS011;24784;45.582;5.276;2024-01-07T07:40:13;8.13;;;6.00;;
39016;SDS011;24784;45.582;5.276;2024-01-07T07:42:39;8.93;;;5.93;;
39016;SDS011;24784;45.582;5.276;2024-01-07T07:45:05;10.07;;;6.43;;
39016;SDS011;24784;45.582;5.276;2024-01-07T07:47:31;9.07;;;5.72;;
39016;SDS011;24784;45.582;5.276;2024-01-07T07:49:56;9.27;;;6.32;;
39016;SDS011;24784;45.582;5.276;2024-01-07T07:52:22;8.57;;;6.18;;
39016;SDS011;24784;45.582;5.276;2024-01-07T07:54:51;9.32;;;6.80;;
39016;SDS011;24784;45.582;5.276;2024-01-07T07:57:17;10.52;;;6.95;;
39016;SDS011;24784;45.582;5.276;2024-01-07T07:59:45;9.98;;;6.63;;
39016;SDS011;24784;45.582;5.276;2024-01-07T08:02:11;10.65;;;6.80;;
39016;SDS011;24784;45.582;5.276;2024-01-07T08:04:37;10.05;;;6.78;;
39016;SDS011;24784;45.582;5.276;2024-01-07T08:07:06;10.38;;;7.05;;
39016;SDS011;24784;45.582;5.276;2024-01-07T08:09:32;15.73;;;7.03;;
39016;SDS011;24784;45.582;5.276;2024-01-07T08:11:57;9.55;;;7.28;;
39016;SDS011;24784;45.582;5.276;2024-01-07T08:14:23;11.05;;;7.25;;
39016;SDS011;24784;45.582;5.276;2024-01-07T08:16:49;10.80;;;7.15;;
39016;SDS011;24784;45.582;5.276;2024-01-07T08:19:14;10.43;;;7.15;;
39016;SDS011;24784;45.582;5.276;2024-01-07T08:21:40;11.27;;;7.60;;
39016;SDS011;24784;45.582;5.276;2024-01-07T08:24:06;10.95;;;7.75;;
39016;SDS011;24784;45.582;5.276;2024-01-07T08:26:31;16.45;;;6.68;;
39016;SDS011;24784;45.582;5.276;2024-01-07T08:28:57;10.98;;;7.40;;
39016;SDS011;24784;45.582;5.276;2024-01-07T08:31:23;13.77;;;8.20;;
39016;SDS011;24784;45.582;5.276;2024-01-07T08:33:49;11.55;;;7.93;;
39016;SDS011;24784;45.582;5.276;2024-01-07T08:36:14;11.05;;;7.53;;
39016;SDS011;24784;45.582;5.276;2024-01-07T08:38:40;10.48;;;7.18;;
39016;SDS011;24784;45.582;5.276;2024-01-07T08:41:05;12.80;;;8.10;;
39016;SDS011;24784;45.582;5.276;2024-01-07T08:43:32;10.02;;;6.70;;
39016;SDS011;24784;45.582;5.276;2024-01-07T08:45:57;13.57;;;7.72;;
39016;SDS011;24784;45.582;5.276;2024-01-07T08:48:23;11.15;;;7.35;;
39016;SDS011;24784;45.582;5.276;2024-01-07T08:50:48;9.15;;;6.68;;
39016;SDS011;24784;45.582;5.276;2024-01-07T08:53:15;11.38;;;7.50;;
39016;SDS011;24784;45.582;5.276;2024-01-07T08:55:41;11.90;;;6.65;;
39016;SDS011;24784;45.582;5.276;2024-01-07T08:58:06;12.50;;;7.82;;
39016;SDS011;24784;45.582;5.276;2024-01-07T09:00:32;9.70;;;6.47;;
39016;SDS011;24784;45.582;5.276;2024-01-07T09:02:57;12.20;;;6.60;;
39016;SDS011;24784;45.582;5.276;2024-01-07T09:05:23;10.40;;;6.93;;
39016;SDS011;24784;45.582;5.276;2024-01-07T09:07:49;10.73;;;6.97;;
39016;SDS011;24784;45.582;5.276;2024-01-07T09:10:15;12.20;;;7.75;;
39016;SDS011;24784;45.582;5.276;2024-01-07T09:12:41;11.05;;;6.97;;
39016;SDS011;24784;45.582;5.276;2024-01-07T09:15:06;11.05;;;7.40;;
39016;SDS011;24784;45.582;5.276;2024-01-07T09:17:34;10.40;;;6.97;;
39016;SDS011;24784;45.582;5.276;2024-01-07T09:20:01;11.45;;;7.13;;
39016;SDS011;24784;45.582;5.276;2024-01-07T09:22:29;11.23;;;6.65;;
39016;SDS011;24784;45.582;5.276;2024-01-07T09:24:55;9.85;;;6.60;;
39016;SDS011;24784;45.582;5.276;2024-01-07T09:27:21;11.18;;;7.20;;
39016;SDS011;24784;45.582;5.276;2024-01-07T09:29:46;13.32;;;7.70;;
39016;SDS011;24784;45.582;5.276;2024-01-07T09:32:12;11.32;;;6.65;;
39016;SDS011;24784;45.582;5.276;2024-01-07T09:34:38;12.50;;;6.43;;
39016;SDS011;24784;45.582;5.276;2024-01-07T09:37:03;11.55;;;7.15;;
39016;SDS011;24784;45.582;5.276;2024-01-07T09:39:29;10.93;;;7.20;;
39016;SDS011;24784;45.582;5.276;2024-01-07T09:41:55;14.30;;;7.18;;
39016;SDS011;24784;45.582;5.276;2024-01-07T09:44:20;11.43;;;6.47;;
39016;SDS011;24784;45.582;5.276;2024-01-07T09:46:46;10.82;;;6.47;;
39016;SDS011;24784;45.582;5.276;2024-01-07T09:49:16;10.00;;;6.50;;
39016;SDS011;24784;45.582;5.276;2024-01-07T09:51:42;14.10;;;7.90;;
39016;SDS011;24784;45.582;5.276;2024-01-07T09:54:12;11.13;;;6.55;;
39016;SDS011;24784;45.582;5.276;2024-01-07T09:56:48;9.32;;;6.45;;
39016;SDS011;24784;45.582;5.276;2024-01-07T09:59:16;8.93;;;6.13;;
39016;SDS011;24784;45.582;5.276;2024-01-07T10:01:43;11.32;;;6.47;;
39016;SDS011;24784;45.582;5.276;2024-01-07T10:04:10;9.27;;;6.07;;
39016;SDS011;24784;45.582;5.276;2024-01-07T10:06:36;8.35;;;5.72;;
39016;SDS011;24784;45.582;5.276;2024-01-07T10:09:02;8.82;;;6.35;;
39016;SDS011;24784;45.582;5.276;2024-01-07T10:11:31;10.20;;;5.93;;
39016;SDS011;24784;45.582;5.276;2024-01-07T10:13:56;9.68;;;6.40;;
39016;SDS011;24784;45.582;5.276;2024-01-07T10:16:22;8.98;;;5.45;;
39016;SDS011;24784;45.582;5.276;2024-01-07T10:18:48;11.75;;;6.10;;
39016;SDS011;24784;45.582;5.276;2024-01-07T10:21:13;10.93;;;6.43;;
39016;SDS011;24784;45.582;5.276;2024-01-07T10:23:39;6.45;;;5.00;;
39016;SDS011;24784;45.582;5.276;2024-01-07T10:26:05;8.35;;;5.70;;
39016;SDS011;24784;45.582;5.276;2024-01-07T10:28:31;10.23;;;6.13;;
39016;SDS011;24784;45.582;5.276;2024-01-07T10:30:57;8.55;;;5.72;;
39016;SDS011;24784;45.582;5.276;2024-01-07T10:33:22;11.70;;;6.90;;
39016;SDS011;24784;45.582;5.276;2024-01-07T10:35:52;10.20;;;6.63;;
39016;SDS011;24784;45.582;5.276;2024-01-07T10:38:21;11.38;;;6.78;;
39016;SDS011;24784;45.582;5.276;2024-01-07T10:40:47;10.95;;;6.82;;
39016;SDS011;24784;45.582;5.276;2024-01-07T10:43:17;10.23;;;6.57;;
39016;SDS011;24784;45.582;5.276;2024-01-07T10:45:44;8.93;;;6.50;;
39016;SDS011;24784;45.582;5.276;2024-01-07T10:48:13;13.15;;;7.00;;
39016;SDS011;24784;45.582;5.276;2024-01-07T10:50:45;10.43;;;6.88;;
39016;SDS011;24784;45.582;5.276;2024-01-07T10:53:14;13.13;;;7.35;;
39016;SDS011;24784;45.582;5.276;2024-01-07T10:55:52;11.02;;;7.10;;
39016;SDS011;24784;45.582;5.276;2024-01-07T10:58:22;12.13;;;7.38;;
39016;SDS011;24784;45.582;5.276;2024-01-07T11:00:49;10.77;;;7.75;;
39016;SDS011;24784;45.582;5.276;2024-01-07T11:03:33;11.20;;;7.30;;
39016;SDS011;24784;45.582;5.276;2024-01-07T11:06:24;12.25;;;8.13;;
39016;SDS011;24784;45.582;5.276;2024-01-07T11:11:39;14.63;;;8.75;;
39016;SDS011;24784;45.582;5.276;2024-01-07T11:17:39;14.63;;;9.45;;
39016;SDS011;24784;45.582;5.276;2024-01-07T11:20:24;15.98;;;9.38;;
39016;SDS011;24784;45.582;5.276;2024-01-07T11:22:51;14.43;;;8.85;;
39016;SDS011;24784;45.582;5.276;2024-01-07T11:25:32;16.70;;;9.80;;
39016;SDS011;24784;45.582;5.276;2024-01-07T11:27:59;15.15;;;9.73;;
39016;SDS011;24784;45.582;5.276;2024-01-07T11:30:26;14.80;;;9.45;;
39016;SDS011;24784;45.582;5.276;2024-01-07T11:32:58;17.60;;;10.43;;
39016;SDS011;24784;45.582;5.276;2024-01-07T11:38:19;16.42;;;10.40;;
39016;SDS011;24784;45.582;5.276;2024-01-07T11:40:44;16.20;;;9.85;;
39016;SDS011;24784;45.582;5.276;2024-01-07T11:43:12;16.50;;;10.27;;
39016;SDS011;24784;45.582;5.276;2024-01-07T11:45:37;17.02;;;10.35;;
39016;SDS011;24784;45.582;5.276;2024-01-07T11:48:04;16.65;;;10.45;;
39016;SDS011;24784;45.582;5.276;2024-01-07T11:50:30;20.00;;;9.82;;
39016;SDS011;24784;45.582;5.276;2024-01-07T11:52:56;16.40;;;10.18;;
39016;SDS011;24784;45.582;5.276;2024-01-07T11:55:22;15.75;;;9.35;;
39016;SDS011;24784;45.582;5.276;2024-01-07T11:57:48;14.77;;;9.32;;
39016;SDS011;24784;45.582;5.276;2024-01-07T12:00:14;13.18;;;9.13;;
39016;SDS011;24784;45.582;5.276;2024-01-07T12:02:40;13.07;;;8.77;;
39016;SDS011;24784;45.582;5.276;2024-01-07T12:05:05;14.77;;;9.82;;
39016;SDS011;24784;45.582;5.276;2024-01-07T12:07:31;14.98;;;9.57;;
39016;SDS011;24784;45.582;5.276;2024-01-07T12:09:57;13.85;;;8.90;;
39016;SDS011;24784;45.582;5.276;2024-01-07T12:12:23;13.05;;;8.90;;
39016;SDS011;24784;45.582;5.276;2024-01-07T12:14:49;14.75;;;9.10;;
39016;SDS011;24784;45.582;5.276;2024-01-07T12:17:18;14.15;;;9.30;;
39016;SDS011;24784;45.582;5.276;2024-01-07T12:19:45;14.23;;;8.82;;
39016;SDS011;24784;45.582;5.276;2024-01-07T12:22:10;12.98;;;8.32;;
39016;SDS011;24784;45.582;5.276;2024-01-07T12:24:36;13.98;;;8.80;;
39016;SDS011;24784;45.582;5.276;2024-01-07T12:27:05;14.85;;;9.43;;
39016;SDS011;24784;45.582;5.276;2024-01-07T12:29:31;15.18;;;9.35;;
39016;SDS011;24784;45.582;5.276;2024-01-07T12:31:57;13.05;;;8.50;;
39016;SDS011;24784;45.582;5.276;2024-01-07T12:34:22;14.38;;;9.05;;
39016;SDS011;24784;45.582;5.276;2024-01-07T12:36:48;11.55;;;7.80;;
39016;SDS011;24784;45.582;5.276;2024-01-07T12:39:14;12.93;;;8.23;;
39016;SDS011;24784;45.582;5.276;2024-01-07T12:41:40;13.15;;;8.95;;
39016;SDS011;24784;45.582;5.276;2024-01-07T12:44:05;12.30;;;8.32;;
39016;SDS011;24784;45.582;5.276;2024-01-07T12:46:33;13.05;;;7.95;;
39016;SDS011;24784;45.582;5.276;2024-01-07T12:48:59;13.23;;;9.25;;
39016;SDS011;24784;45.582;5.276;2024-01-07T12:51:25;10.48;;;8.02;;
39016;SDS011;24784;45.582;5.276;2024-01-07T12:53:50;12.43;;;8.18;;
39016;SDS011;24784;45.582;5.276;2024-01-07T12:56:16;13.93;;;8.80;;
39016;SDS011;24784;45.582;5.276;2024-01-07T12:58:42;11.63;;;7.97;;
39016;SDS011;24784;45.582;5.276;2024-01-07T13:01:08;11.82;;;7.97;;
39016;SDS011;24784;45.582;5.276;2024-01-07T13:03:34;12.57;;;8.80;;
39016;SDS011;24784;45.582;5.276;2024-01-07T13:05:59;13.35;;;8.13;;
39016;SDS011;24784;45.582;5.276;2024-01-07T13:08:26;10.43;;;7.88;;
39016;SDS011;24784;45.582;5.276;2024-01-07T13:10:52;9.50;;;7.05;;
39016;SDS011;24784;45.582;5.276;2024-01-07T13:13:20;10.82;;;7.55;;
39016;SDS011;24784;45.582;5.276;2024-01-07T13:15:45;12.80;;;6.72;;
39016;SDS011;24784;45.582;5.276;2024-01-07T13:18:11;11.65;;;7.65;;
39016;SDS011;24784;45.582;5.276;2024-01-07T13:20:37;11.93;;;7.50;;
39016;SDS011;24784;45.582;5.276;2024-01-07T13:23:05;11.43;;;7.57;;
39016;SDS011;24784;45.582;5.276;2024-01-07T13:25:31;9.60;;;6.80;;
39016;SDS011;24784;45.582;5.276;2024-01-07T13:27:57;12.82;;;8.20;;
39016;SDS011;24784;45.582;5.276;2024-01-07T13:30:23;11.40;;;7.05;;
39016;SDS011;24784;45.582;5.276;2024-01-07T13:32:49;10.50;;;7.35;;
39016;SDS011;24784;45.582;5.276;2024-01-07T13:35:16;10.55;;;7.25;;
39016;SDS011;24784;45.582;5.276;2024-01-07T13:37:42;8.70;;;6.78;;
39016;SDS011;24784;45.582;5.276;2024-01-07T13:40:08;12.43;;;7.10;;
39016;SDS011;24784;45.582;5.276;2024-01-07T13:42:35;11.55;;;7.45;;
39016;SDS011;24784;45.582;5.276;2024-01-07T13:45:01;10.38;;;7.45;;
39016;SDS011;24784;45.582;5.276;2024-01-07T13:47:27;11.90;;;8.27;;
39016;SDS011;24784;45.582;5.276;2024-01-07T13:49:53;13.20;;;8.23;;
39016;SDS011;24784;45.582;5.276;2024-01-07T13:52:19;11.68;;;8.18;;
39016;SDS011;24784;45.582;5.276;2024-01-07T13:54:44;12.15;;;8.05;;
39016;SDS011;24784;45.582;5.276;2024-01-07T13:57:10;13.05;;;8.45;;
39016;SDS011;24784;45.582;5.276;2024-01-07T13:59:37;14.45;;;8.68;;
39016;SDS011;24784;45.582;5.276;2024-01-07T14:02:05;11.85;;;8.00;;
39016;SDS011;24784;45.582;5.276;2024-01-07T14:04:32;14.90;;;8.98;;
39016;SDS011;24784;45.582;5.276;2024-01-07T14:06:57;14.85;;;9.18;;
39016;SDS011;24784;45.582;5.276;2024-01-07T14:09:23;15.55;;;9.60;;
39016;SDS011;24784;45.582;5.276;2024-01-07T14:11:49;14.27;;;8.85;;
39016;SDS011;24784;45.582;5.276;2024-01-07T14:14:15;13.43;;;9.13;;
39016;SDS011;24784;45.582;5.276;2024-01-07T14:16:41;13.55;;;9.50;;
39016;SDS011;24784;45.582;5.276;2024-01-07T14:19:07;18.65;;;10.55;;
39016;SDS011;24784;45.582;5.276;2024-01-07T14:21:32;17.70;;;10.48;;
39016;SDS011;24784;45.582;5.276;2024-01-07T14:23:58;18.13;;;9.75;;
39016;SDS011;24784;45.582;5.276;2024-01-07T14:26:23;16.38;;;10.23;;
39016;SDS011;24784;45.582;5.276;2024-01-07T14:28:49;16.60;;;10.38;;
39016;SDS011;24784;45.582;5.276;2024-01-07T14:31:18;15.82;;;9.73;;
39016;SDS011;24784;45.582;5.276;2024-01-07T14:33:44;17.70;;;10.55;;
39016;SDS011;24784;45.582;5.276;2024-01-07T14:36:09;18.25;;;10.88;;
39016;SDS011;24784;45.582;5.276;2024-01-07T14:38:42;17.00;;;10.32;;
39016;SDS011;24784;45.582;5.276;2024-01-07T14:41:09;17.77;;;10.32;;
39016;SDS011;24784;45.582;5.276;2024-01-07T14:43:34;18.75;;;11.20;;
39016;SDS011;24784;45.582;5.276;2024-01-07T14:46:00;18.90;;;11.70;;
39016;SDS011;24784;45.582;5.276;2024-01-07T14:48:25;18.63;;;11.27;;
39016;SDS011;24784;45.582;5.276;2024-01-07T14:50:51;24.08;;;12.30;;